Time;durP1;ratioP1;P1;durP2;ratioP2;P2;SDS_P1;SDS_P2;PMS_P1;PMS_P2;Temp;Humidity;BMP_temperature;BMP_pressure;BME280_temperature;BME280_humidity;BME280_pressure;Samples;Min_cycle;Max_cycle;Signal;HPM_P1;HPM_P2
2020/12/06 00:01:22;;;;;;;22.37;14.27;;;;;;;;;;733118;189;919195;-61
2020/12/06 00:03:48;;;;;;;15.33;10.50;;;;;;;;;;729744;189;917059;-62
2020/12/06 00:06:14;;;;;;;16.27;10.77;;;;;;;;;;739278;189;924828;-62
2020/12/06 00:08:40;;;;;;;12.53;8.17;;;;;;;;;;728067;189;1405566;-62
2020/12/06 00:11:06;;;;;;;16.58;10.93;;;;;;;;;;729968;190;915240;-62
2020/12/06 00:13:32;;;;;;;17.27;8.90;;;;;;;;;;733802;189;953372;-62
2020/12/06 00:15:58;;;;;;;13.77;9.47;;;;;;;;;;728610;190;919189;-62
2020/12/06 00:18:23;;;;;;;15.47;9.10;;;;;;;;;;732044;189;918942;-62
2020/12/06 00:20:49;;;;;;;14.03;8.20;;;;;;;;;;734805;189;918813;-62
2020/12/06 00:23:20;;;;;;;13.40;8.07;;;;;;;;;;730444;189;918872;-62
2020/12/06 00:25:41;;;;;;;11.83;8.53;;;;;;;;;;728052;190;919189;-62
2020/12/06 00:28:07;;;;;;;12.20;8.43;;;;;;;;;;729210;189;919033;-59
2020/12/06 00:30:33;;;;;;;13.83;9.20;;;;;;;;;;733039;190;918677;-62
2020/12/06 00:32:58;;;;;;;14.00;8.80;;;;;;;;;;731093;189;918703;-62
2020/12/06 00:35:24;;;;;;;14.30;8.80;;;;;;;;;;729802;190;919501;-63
2020/12/06 00:37:50;;;;;;;12.57;8.50;;;;;;;;;;736436;190;918680;-63
2020/12/06 00:40:16;;;;;;;13.10;8.30;;;;;;;;;;728017;189;919065;-62
2020/12/06 00:42:42;;;;;;;18.10;9.50;;;;;;;;;;731238;189;926875;-62
2020/12/06 00:45:08;;;;;;;14.20;10.13;;;;;;;;;;731003;189;937018;-63
2020/12/06 00:47:36;;;;;;;17.10;9.20;;;;;;;;;;728338;190;919432;-61
2020/12/06 00:50:02;;;;;;;14.20;9.43;;;;;;;;;;728867;189;918622;-62
2020/12/06 00:52:28;;;;;;;12.27;8.80;;;;;;;;;;731283;190;918958;-61
2020/12/06 00:54:55;;;;;;;16.90;10.23;;;;;;;;;;736902;190;926154;-62
2020/12/06 00:57:21;;;;;;;20.50;9.40;;;;;;;;;;730588;189;934787;-62
2020/12/06 00:59:47;;;;;;;17.20;9.40;;;;;;;;;;729874;190;919834;-62
2020/12/06 01:02:12;;;;;;;15.60;9.50;;;;;;;;;;731667;190;920617;-63
2020/12/06 01:04:38;;;;;;;15.53;9.20;;;;;;;;;;728931;189;918268;-62
2020/12/06 01:07:04;;;;;;;16.90;9.43;;;;;;;;;;729713;189;926357;-62
2020/12/06 01:09:30;;;;;;;22.90;9.50;;;;;;;;;;732035;190;918710;-62
2020/12/06 01:11:58;;;;;;;19.73;11.77;;;;;;;;;;728365;190;919403;-61
2020/12/06 01:14:22;;;;;;;15.33;9.60;;;;;;;;;;733316;189;919551;-62
2020/12/06 01:16:48;;;;;;;14.45;8.75;;;;;;;;;;726805;190;1044259;-61
2020/12/06 01:19:14;;;;;;;15.73;9.73;;;;;;;;;;734657;189;919154;-62
2020/12/06 01:21:40;;;;;;;13.80;8.50;;;;;;;;;;727456;190;919459;-61
2020/12/06 01:24:06;;;;;;;12.10;8.93;;;;;;;;;;731298;190;919437;-62
2020/12/06 01:26:32;;;;;;;13.77;9.47;;;;;;;;;;734498;190;919060;-62
2020/12/06 01:28:58;;;;;;;17.53;11.10;;;;;;;;;;734727;189;918561;-62
2020/12/06 01:31:24;;;;;;;15.97;10.23;;;;;;;;;;728156;189;1021067;-62
2020/12/06 01:33:50;;;;;;;17.97;10.40;;;;;;;;;;736752;190;919460;-61
2020/12/06 01:36:15;;;;;;;14.20;9.07;;;;;;;;;;729682;189;919195;-61
2020/12/06 01:38:42;;;;;;;16.73;9.83;;;;;;;;;;727610;189;919172;-61
2020/12/06 01:41:07;;;;;;;22.10;10.37;;;;;;;;;;735287;190;918751;-62
2020/12/06 01:43:33;;;;;;;14.30;10.33;;;;;;;;;;729098;189;927835;-62
2020/12/06 01:45:59;;;;;;;16.27;9.47;;;;;;;;;;729965;189;918536;-62
2020/12/06 01:48:25;;;;;;;14.10;10.27;;;;;;;;;;725743;189;919229;-61
2020/12/06 01:50:50;;;;;;;15.37;9.73;;;;;;;;;;734077;190;919405;-61
2020/12/06 01:53:16;;;;;;;15.30;9.97;;;;;;;;;;725089;190;920753;-62
2020/12/06 01:55:42;;;;;;;14.67;10.57;;;;;;;;;;731068;189;919095;-61
2020/12/06 01:58:08;;;;;;;15.20;10.07;;;;;;;;;;733847;189;1020322;-63
2020/12/06 02:00:34;;;;;;;16.43;10.07;;;;;;;;;;726690;189;919109;-61
2020/12/06 02:03:00;;;;;;;15.60;11.10;;;;;;;;;;727315;190;919814;-61
2020/12/06 02:05:25;;;;;;;19.33;12.13;;;;;;;;;;734014;190;920005;-63
2020/12/06 02:07:51;;;;;;;19.33;11.13;;;;;;;;;;727091;190;915445;-63
2020/12/06 02:10:17;;;;;;;12.73;10.20;;;;;;;;;;731018;190;922863;-63
2020/12/06 02:12:44;;;;;;;14.68;10.00;;;;;;;;;;732311;190;916478;-62
2020/12/06 02:15:09;;;;;;;15.50;10.60;;;;;;;;;;728711;190;915934;-63
2020/12/06 02:17:35;;;;;;;17.30;10.17;;;;;;;;;;726842;190;923218;-63
2020/12/06 02:20:01;;;;;;;17.27;11.37;;;;;;;;;;727736;189;916834;-62
2020/12/06 02:22:27;;;;;;;12.97;9.33;;;;;;;;;;735589;190;914987;-62
2020/12/06 02:24:53;;;;;;;12.00;9.07;;;;;;;;;;727174;189;915386;-63
2020/12/06 02:27:19;;;;;;;15.93;10.27;;;;;;;;;;733206;189;917510;-62
2020/12/06 02:29:44;;;;;;;16.60;10.07;;;;;;;;;;734670;190;915664;-62
2020/12/06 02:32:10;;;;;;;15.30;9.23;;;;;;;;;;731817;190;1021732;-63
2020/12/06 02:34:37;;;;;;;16.80;9.80;;;;;;;;;;728764;190;918730;-63
2020/12/06 02:37:02;;;;;;;14.53;9.43;;;;;;;;;;734450;189;899490;-64
2020/12/06 02:39:28;;;;;;;16.70;11.30;;;;;;;;;;726819;189;1180668;-64
2020/12/06 02:41:54;;;;;;;18.25;10.55;;;;;;;;;;727528;190;918881;-63
2020/12/06 02:44:20;;;;;;;12.53;8.70;;;;;;;;;;728568;190;919675;-63
2020/12/06 02:46:45;;;;;;;16.13;10.53;;;;;;;;;;732884;189;919260;-62
2020/12/06 02:49:11;;;;;;;13.10;9.10;;;;;;;;;;729234;190;919371;-63
2020/12/06 02:51:37;;;;;;;17.40;9.83;;;;;;;;;;727500;189;918183;-63
2020/12/06 02:54:03;;;;;;;14.00;9.00;;;;;;;;;;738995;189;918143;-63
2020/12/06 02:56:29;;;;;;;16.37;10.27;;;;;;;;;;728971;190;919189;-63
2020/12/06 02:58:55;;;;;;;12.75;8.60;;;;;;;;;;730527;190;918812;-62
2020/12/06 03:01:20;;;;;;;18.00;10.47;;;;;;;;;;732801;190;919524;-63
2020/12/06 03:03:46;;;;;;;13.60;10.13;;;;;;;;;;725723;190;919915;-64
2020/12/06 03:06:12;;;;;;;14.53;9.77;;;;;;;;;;730650;189;919129;-63
2020/12/06 03:08:38;;;;;;;13.47;9.60;;;;;;;;;;734771;190;919302;-62
2020/12/06 03:11:05;;;;;;;15.17;9.73;;;;;;;;;;723991;189;1631288;-62
2020/12/06 03:13:30;;;;;;;15.50;9.63;;;;;;;;;;729439;190;1021126;-63
2020/12/06 03:15:56;;;;;;;13.90;10.00;;;;;;;;;;727597;190;925043;-62
2020/12/06 03:18:22;;;;;;;14.13;9.00;;;;;;;;;;735455;190;918600;-64
2020/12/06 03:20:48;;;;;;;16.67;9.73;;;;;;;;;;727830;190;921728;-63
2020/12/06 03:23:14;;;;;;;11.13;8.50;;;;;;;;;;729925;190;919824;-62
2020/12/06 03:25:40;;;;;;;13.33;9.53;;;;;;;;;;736545;190;919318;-64
2020/12/06 03:28:05;;;;;;;13.10;10.33;;;;;;;;;;724164;189;2219384;-63
2020/12/06 03:30:31;;;;;;;12.77;9.60;;;;;;;;;;729598;190;919468;-63
2020/12/06 03:32:57;;;;;;;13.03;9.63;;;;;;;;;;732765;190;916894;-63
2020/12/06 03:35:23;;;;;;;13.43;9.07;;;;;;;;;;730318;189;919269;-63
2020/12/06 03:37:49;;;;;;;13.20;8.93;;;;;;;;;;727768;189;918435;-64
2020/12/06 03:40:15;;;;;;;11.33;8.03;;;;;;;;;;737606;189;918808;-63
2020/12/06 03:42:40;;;;;;;12.40;8.43;;;;;;;;;;726836;190;919174;-64
2020/12/06 03:45:06;;;;;;;19.33;11.93;;;;;;;;;;728771;190;921957;-62
2020/12/06 03:47:32;;;;;;;13.85;8.65;;;;;;;;;;718600;189;2609707;-63
2020/12/06 03:49:58;;;;;;;14.37;8.60;;;;;;;;;;733588;190;918410;-62
2020/12/06 03:52:24;;;;;;;16.90;8.90;;;;;;;;;;729353;189;917920;-63
2020/12/06 03:54:50;;;;;;;11.85;9.10;;;;;;;;;;730382;190;919015;-63
2020/12/06 03:57:15;;;;;;;16.67;8.43;;;;;;;;;;732991;190;919455;-63
2020/12/06 03:59:41;;;;;;;15.70;8.77;;;;;;;;;;731548;190;919200;-64
2020/12/06 04:02:10;;;;;;;11.73;8.67;;;;;;;;;;731725;190;918732;-63
2020/12/06 04:04:38;;;;;;;11.20;7.57;;;;;;;;;;729883;190;919429;-62
2020/12/06 04:07:04;;;;;;;15.00;10.00;;;;;;;;;;729847;190;920119;-63
2020/12/06 04:09:30;;;;;;;13.50;9.00;;;;;;;;;;717977;189;3039736;-63
2020/12/06 04:11:56;;;;;;;17.03;9.37;;;;;;;;;;728755;189;918148;-63
2020/12/06 04:14:21;;;;;;;13.33;8.30;;;;;;;;;;732224;189;914834;-62
2020/12/06 04:16:47;;;;;;;16.00;9.53;;;;;;;;;;726451;190;915618;-63
2020/12/06 04:19:13;;;;;;;14.87;9.97;;;;;;;;;;728306;189;915843;-62
2020/12/06 04:21:39;;;;;;;13.80;9.10;;;;;;;;;;735624;190;915249;-62
2020/12/06 04:24:05;;;;;;;11.53;7.53;;;;;;;;;;730010;189;937933;-63
2020/12/06 04:26:31;;;;;;;15.10;9.73;;;;;;;;;;730965;190;919532;-63
2020/12/06 04:28:57;;;;;;;11.50;8.07;;;;;;;;;;733255;189;918334;-64
2020/12/06 04:31:22;;;;;;;13.23;7.93;;;;;;;;;;728944;189;919014;-63
2020/12/06 04:33:48;;;;;;;13.00;8.17;;;;;;;;;;726845;189;1021039;-62
2020/12/06 04:36:14;;;;;;;11.77;7.83;;;;;;;;;;729283;189;918790;-64
2020/12/06 04:38:40;;;;;;;11.30;8.67;;;;;;;;;;729296;190;919259;-64
2020/12/06 04:41:06;;;;;;;14.83;8.60;;;;;;;;;;730236;189;919582;-62
2020/12/06 04:43:32;;;;;;;11.27;7.60;;;;;;;;;;731055;189;919694;-62
2020/12/06 04:45:58;;;;;;;12.90;7.83;;;;;;;;;;734433;190;920560;-63
2020/12/06 04:48:24;;;;;;;12.60;8.97;;;;;;;;;;734233;189;1026985;-61
2020/12/06 04:50:50;;;;;;;14.15;9.10;;;;;;;;;;729280;189;919957;-62
2020/12/06 04:53:16;;;;;;;10.00;8.63;;;;;;;;;;735730;190;918674;-62
2020/12/06 04:55:42;;;;;;;15.43;7.93;;;;;;;;;;731514;189;920027;-62
2020/12/06 04:58:08;;;;;;;14.70;9.67;;;;;;;;;;731870;190;919527;-64
2020/12/06 05:00:34;;;;;;;11.73;8.60;;;;;;;;;;732423;190;919125;-63
2020/12/06 05:03:00;;;;;;;11.20;7.40;;;;;;;;;;734887;189;936980;-62
2020/12/06 05:05:26;;;;;;;13.60;8.90;;;;;;;;;;728430;189;918511;-62
2020/12/06 05:07:52;;;;;;;13.90;9.37;;;;;;;;;;729834;189;920095;-63
2020/12/06 05:10:18;;;;;;;9.77;7.07;;;;;;;;;;733160;189;919641;-63
2020/12/06 05:12:43;;;;;;;12.60;9.50;;;;;;;;;;730468;189;918941;-63
2020/12/06 05:15:09;;;;;;;12.50;9.23;;;;;;;;;;727065;189;918796;-62
2020/12/06 05:17:35;;;;;;;11.43;8.20;;;;;;;;;;737239;190;919273;-63
2020/12/06 05:20:15;;;;;;;10.57;7.47;;;;;;;;;;730372;190;920947;-62
2020/12/06 05:22:45;;;;;;;13.13;8.67;;;;;;;;;;731206;190;918944;-63
2020/12/06 05:25:08;;;;;;;13.60;8.77;;;;;;;;;;730840;190;918721;-63
2020/12/06 05:27:34;;;;;;;12.97;8.57;;;;;;;;;;733806;189;919084;-62
2020/12/06 05:30:00;;;;;;;50.90;10.87;;;;;;;;;;731281;190;920372;-63
2020/12/06 05:32:26;;;;;;;10.30;6.83;;;;;;;;;;726894;190;916054;-62
2020/12/06 05:34:51;;;;;;;12.90;8.40;;;;;;;;;;734326;190;915139;-62
2020/12/06 05:37:17;;;;;;;16.20;7.60;;;;;;;;;;725200;189;1172172;-62
2020/12/06 05:39:43;;;;;;;9.90;7.67;;;;;;;;;;727570;189;1102156;-63
2020/12/06 05:42:09;;;;;;;11.33;7.97;;;;;;;;;;729349;190;916452;-63
2020/12/06 05:44:35;;;;;;;16.67;8.27;;;;;;;;;;736527;190;915388;-63
2020/12/06 05:47:01;;;;;;;13.13;7.07;;;;;;;;;;729850;190;915574;-64
2020/12/06 05:49:26;;;;;;;10.77;6.70;;;;;;;;;;724011;190;919017;-63
2020/12/06 05:51:52;;;;;;;9.83;7.13;;;;;;;;;;736504;190;919088;-63
2020/12/06 05:54:18;;;;;;;9.93;6.83;;;;;;;;;;736404;190;628957;-62
2020/12/06 05:56:44;;;;;;;11.70;8.00;;;;;;;;;;728261;189;924925;-63
2020/12/06 05:59:10;;;;;;;9.60;7.93;;;;;;;;;;736138;188;919595;-62
2020/12/06 06:01:36;;;;;;;11.07;6.80;;;;;;;;;;731696;188;923121;-65
2020/12/06 06:04:01;;;;;;;11.23;7.53;;;;;;;;;;727520;190;918991;-63
2020/12/06 06:06:32;;;;;;;10.10;6.53;;;;;;;;;;730288;190;918884;-62
2020/12/06 06:08:58;;;;;;;11.00;7.83;;;;;;;;;;729023;190;919031;-63
2020/12/06 06:11:24;;;;;;;9.70;7.27;;;;;;;;;;731066;189;919566;-62
2020/12/06 06:13:52;;;;;;;8.73;6.77;;;;;;;;;;729666;190;921665;-62
2020/12/06 06:16:17;;;;;;;12.60;7.20;;;;;;;;;;734589;190;918914;-62
2020/12/06 06:18:43;;;;;;;11.87;7.80;;;;;;;;;;728514;189;916251;-63
2020/12/06 06:21:09;;;;;;;9.98;7.10;;;;;;;;;;728246;190;919394;-62
2020/12/06 06:23:36;;;;;;;9.85;6.53;;;;;;;;;;724680;189;1286916;-62
2020/12/06 06:26:01;;;;;;;9.77;7.47;;;;;;;;;;732353;189;918761;-62
2020/12/06 06:28:27;;;;;;;21.30;6.83;;;;;;;;;;726179;190;919891;-63
2020/12/06 06:30:53;;;;;;;12.53;7.30;;;;;;;;;;729585;190;918930;-62
2020/12/06 06:33:19;;;;;;;11.50;8.30;;;;;;;;;;729819;190;953551;-62
2020/12/06 06:35:45;;;;;;;9.35;7.37;;;;;;;;;;732323;190;923891;-62
2020/12/06 06:38:11;;;;;;;9.70;6.03;;;;;;;;;;733991;190;918686;-63
2020/12/06 06:40:38;;;;;;;13.37;7.80;;;;;;;;;;734886;190;917932;-62
2020/12/06 06:43:04;;;;;;;10.33;7.57;;;;;;;;;;731019;189;915760;-63
2020/12/06 06:45:29;;;;;;;10.37;7.20;;;;;;;;;;727673;189;873128;-63
2020/12/06 06:47:55;;;;;;;9.90;7.13;;;;;;;;;;732508;190;1022795;-63
2020/12/06 06:50:21;;;;;;;8.70;7.53;;;;;;;;;;727166;190;940447;-63
2020/12/06 06:52:47;;;;;;;10.80;7.60;;;;;;;;;;729417;190;1031924;-62
2020/12/06 06:55:13;;;;;;;12.13;7.80;;;;;;;;;;726348;190;914939;-62
2020/12/06 06:57:38;;;;;;;9.20;6.70;;;;;;;;;;731366;190;915838;-63
2020/12/06 07:00:04;;;;;;;12.07;7.70;;;;;;;;;;728915;190;1020179;-62
2020/12/06 07:02:31;;;;;;;11.43;7.47;;;;;;;;;;731469;190;919034;-62
2020/12/06 07:04:57;;;;;;;11.43;7.97;;;;;;;;;;731108;190;1464051;-62
2020/12/06 07:07:28;;;;;;;8.97;6.97;;;;;;;;;;732298;190;918922;-63
2020/12/06 07:09:54;;;;;;;9.37;6.87;;;;;;;;;;727550;190;919178;-61
2020/12/06 07:12:20;;;;;;;14.83;8.03;;;;;;;;;;734218;189;918572;-62
2020/12/06 07:14:47;;;;;;;14.90;7.53;;;;;;;;;;728840;190;919003;-69
2020/12/06 07:17:13;;;;;;;11.38;8.27;;;;;;;;;;733620;189;918589;-63
2020/12/06 07:19:39;;;;;;;10.47;6.87;;;;;;;;;;733013;189;917568;-62
2020/12/06 07:22:04;;;;;;;9.83;7.20;;;;;;;;;;735937;190;917818;-61
2020/12/06 07:24:30;;;;;;;9.30;6.80;;;;;;;;;;732057;190;918957;-62
2020/12/06 07:26:56;;;;;;;8.40;6.93;;;;;;;;;;733681;189;626017;-63
2020/12/06 07:29:22;;;;;;;11.20;7.30;;;;;;;;;;739377;190;624504;-62
2020/12/06 07:31:48;;;;;;;9.67;6.67;;;;;;;;;;733530;190;783355;-61
2020/12/06 07:34:14;;;;;;;11.80;7.10;;;;;;;;;;735456;189;631853;-62
2020/12/06 07:36:40;;;;;;;9.07;6.57;;;;;;;;;;733859;190;615546;-62
2020/12/06 07:39:11;;;;;;;12.63;8.03;;;;;;;;;;735468;189;620539;-63
2020/12/06 07:41:43;;;;;;;14.93;8.33;;;;;;;;;;727151;190;919190;-62
2020/12/06 07:44:09;;;;;;;11.23;8.30;;;;;;;;;;727547;189;935353;-62
2020/12/06 07:46:36;;;;;;;11.15;7.95;;;;;;;;;;730610;189;919595;-60
2020/12/06 07:49:01;;;;;;;10.80;6.93;;;;;;;;;;730421;190;918451;-62
2020/12/06 07:51:27;;;;;;;10.50;7.20;;;;;;;;;;727293;189;918874;-62
2020/12/06 07:53:53;;;;;;;11.70;7.70;;;;;;;;;;728472;190;919631;-61
2020/12/06 07:56:20;;;;;;;14.53;8.77;;;;;;;;;;732404;189;919009;-64
2020/12/06 07:58:46;;;;;;;12.40;8.53;;;;;;;;;;731567;190;919519;-62
2020/12/06 08:01:12;;;;;;;10.70;6.83;;;;;;;;;;730832;189;918890;-62
2020/12/06 08:03:38;;;;;;;12.33;8.13;;;;;;;;;;732203;190;918742;-62
2020/12/06 08:06:03;;;;;;;10.97;7.97;;;;;;;;;;730027;190;919196;-63
2020/12/06 08:08:34;;;;;;;12.47;8.47;;;;;;;;;;726590;189;1022251;-62
2020/12/06 08:10:55;;;;;;;12.23;7.97;;;;;;;;;;732474;189;918411;-62
2020/12/06 08:13:21;;;;;;;12.63;8.70;;;;;;;;;;728349;189;963583;-61
2020/12/06 08:15:47;;;;;;;12.80;8.68;;;;;;;;;;729285;189;918937;-62
2020/12/06 08:18:13;;;;;;;12.60;8.13;;;;;;;;;;726621;190;919481;-63
2020/12/06 08:20:38;;;;;;;12.50;7.30;;;;;;;;;;734849;190;919376;-62
2020/12/06 08:23:04;;;;;;;9.57;6.47;;;;;;;;;;731156;189;919439;-61
2020/12/06 08:25:31;;;;;;;9.07;6.93;;;;;;;;;;732278;189;919037;-62
2020/12/06 08:27:57;;;;;;;13.37;7.20;;;;;;;;;;735394;190;918287;-62
2020/12/06 08:30:23;;;;;;;13.33;7.50;;;;;;;;;;731732;190;919180;-63
2020/12/06 08:32:51;;;;;;;11.57;8.03;;;;;;;;;;724483;190;1527476;-62
2020/12/06 08:35:17;;;;;;;11.03;7.70;;;;;;;;;;734978;190;919078;-61
2020/12/06 08:37:43;;;;;;;13.07;6.93;;;;;;;;;;729845;190;917456;-61
2020/12/06 08:40:09;;;;;;;9.57;7.20;;;;;;;;;;728164;189;919272;-63
2020/12/06 08:42:35;;;;;;;10.27;7.23;;;;;;;;;;730291;189;918597;-61
2020/12/06 08:45:00;;;;;;;9.70;7.03;;;;;;;;;;734157;189;906828;-62
2020/12/06 08:47:27;;;;;;;11.37;6.80;;;;;;;;;;730299;190;919192;-62
2020/12/06 08:49:59;;;;;;;11.10;9.00;;;;;;;;;;725852;189;919676;-61
2020/12/06 08:52:25;;;;;;;9.30;7.75;;;;;;;;;;733049;189;935312;-61
2020/12/06 08:54:51;;;;;;;10.00;7.80;;;;;;;;;;729533;189;918978;-62
2020/12/06 08:57:19;;;;;;;11.60;7.40;;;;;;;;;;731462;190;918939;-62
2020/12/06 08:59:42;;;;;;;16.53;8.10;;;;;;;;;;725472;190;919066;-62
2020/12/06 09:02:09;;;;;;;12.80;7.70;;;;;;;;;;729707;190;918486;-62
2020/12/06 09:04:34;;;;;;;10.18;7.47;;;;;;;;;;727503;189;919596;-62
2020/12/06 09:07:00;;;;;;;10.93;7.33;;;;;;;;;;729549;189;932762;-62
2020/12/06 09:09:26;;;;;;;9.13;7.20;;;;;;;;;;732719;190;919741;-62
2020/12/06 09:11:52;;;;;;;12.40;7.05;;;;;;;;;;731249;190;919629;-62
2020/12/06 09:14:23;;;;;;;12.07;7.13;;;;;;;;;;730925;190;789363;-62
2020/12/06 09:16:49;;;;;;;9.80;7.40;;;;;;;;;;729377;190;919664;-63
2020/12/06 09:19:15;;;;;;;14.37;9.67;;;;;;;;;;724089;190;919717;-61
2020/12/06 09:21:40;;;;;;;8.80;7.33;;;;;;;;;;727321;189;925389;-62
2020/12/06 09:24:06;;;;;;;12.13;7.40;;;;;;;;;;729344;190;919667;-62
2020/12/06 09:26:32;;;;;;;12.03;7.77;;;;;;;;;;733677;190;918827;-62
2020/12/06 09:28:58;;;;;;;11.53;7.90;;;;;;;;;;730293;190;1021537;-62
2020/12/06 09:31:24;;;;;;;10.63;7.13;;;;;;;;;;726599;188;919222;-62
2020/12/06 09:33:50;;;;;;;9.73;6.87;;;;;;;;;;735587;189;917705;-62
2020/12/06 09:36:16;;;;;;;10.83;8.13;;;;;;;;;;728355;189;1021754;-63
2020/12/06 09:38:41;;;;;;;9.45;6.45;;;;;;;;;;729700;189;922842;-63
2020/12/06 09:41:11;;;;;;;10.43;8.17;;;;;;;;;;732726;189;915757;-62
2020/12/06 09:43:33;;;;;;;9.20;7.20;;;;;;;;;;732425;189;915788;-64
2020/12/06 09:46:00;;;;;;;9.47;6.77;;;;;;;;;;731577;189;906990;-63
2020/12/06 09:48:25;;;;;;;10.00;6.67;;;;;;;;;;734269;189;919030;-62
2020/12/06 09:50:51;;;;;;;10.07;7.40;;;;;;;;;;729661;189;918870;-63
2020/12/06 09:53:17;;;;;;;11.37;6.53;;;;;;;;;;730963;190;919890;-63
2020/12/06 09:55:42;;;;;;;8.77;6.70;;;;;;;;;;730179;189;918919;-63
2020/12/06 09:58:08;;;;;;;9.77;7.00;;;;;;;;;;733145;189;910854;-63
2020/12/06 10:00:34;;;;;;;7.40;5.60;;;;;;;;;;731634;189;919057;-63
2020/12/06 10:03:00;;;;;;;7.90;6.57;;;;;;;;;;727994;190;1384454;-63
2020/12/06 10:05:26;;;;;;;9.73;6.95;;;;;;;;;;734995;190;918623;-62
2020/12/06 10:07:52;;;;;;;10.60;7.33;;;;;;;;;;728900;190;921612;-62
2020/12/06 10:10:17;;;;;;;6.65;5.07;;;;;;;;;;730339;190;918903;-62
2020/12/06 10:12:43;;;;;;;8.03;5.63;;;;;;;;;;733613;190;918728;-63
2020/12/06 10:15:09;;;;;;;7.07;5.60;;;;;;;;;;731563;189;918437;-63
2020/12/06 10:17:38;;;;;;;8.27;6.07;;;;;;;;;;729032;189;918409;-63
2020/12/06 10:20:01;;;;;;;9.27;6.70;;;;;;;;;;729113;190;919061;-62
2020/12/06 10:22:27;;;;;;;8.60;6.33;;;;;;;;;;735456;189;632064;-62
2020/12/06 10:24:53;;;;;;;9.63;6.60;;;;;;;;;;731311;189;919313;-64
2020/12/06 10:27:18;;;;;;;8.40;6.57;;;;;;;;;;728329;189;919935;-63
2020/12/06 10:29:44;;;;;;;9.07;6.53;;;;;;;;;;734241;190;810047;-62
2020/12/06 10:32:10;;;;;;;10.17;6.47;;;;;;;;;;729712;189;916197;-63
2020/12/06 10:34:36;;;;;;;9.02;6.03;;;;;;;;;;728981;189;1017570;-63
2020/12/06 10:37:02;;;;;;;7.90;5.60;;;;;;;;;;735095;190;914331;-63
2020/12/06 10:39:28;;;;;;;12.63;6.43;;;;;;;;;;716114;190;918825;-62
2020/12/06 10:41:53;;;;;;;7.40;6.53;;;;;;;;;;727208;190;944238;-63
2020/12/06 10:44:19;;;;;;;8.53;6.63;;;;;;;;;;733605;189;921696;-63
2020/12/06 10:46:46;;;;;;;8.47;5.50;;;;;;;;;;733124;187;918441;-63
2020/12/06 10:49:12;;;;;;;8.03;6.27;;;;;;;;;;732087;189;920621;-63
2020/12/06 10:51:38;;;;;;;10.30;6.20;;;;;;;;;;725464;190;919110;-63
2020/12/06 10:54:03;;;;;;;7.07;5.53;;;;;;;;;;734215;190;916701;-62
2020/12/06 10:56:31;;;;;;;7.47;6.40;;;;;;;;;;732318;190;919118;-64
2020/12/06 10:58:57;;;;;;;12.37;6.35;;;;;;;;;;728469;189;919665;-63
2020/12/06 11:01:24;;;;;;;8.27;6.17;;;;;;;;;;738023;190;923001;-63
2020/12/06 11:03:50;;;;;;;9.17;5.87;;;;;;;;;;732476;190;918654;-63
2020/12/06 11:06:16;;;;;;;6.87;5.20;;;;;;;;;;729086;189;919689;-63
2020/12/06 11:08:42;;;;;;;11.83;6.07;;;;;;;;;;733346;190;914762;-62
2020/12/06 11:11:08;;;;;;;8.33;5.53;;;;;;;;;;732233;190;919393;-63
2020/12/06 11:13:34;;;;;;;10.10;5.87;;;;;;;;;;728192;190;919679;-63
2020/12/06 11:16:00;;;;;;;20.47;13.00;;;;;;;;;;724858;190;915708;-63
2020/12/06 11:18:25;;;;;;;18.03;10.77;;;;;;;;;;732043;190;917356;-63
2020/12/06 11:20:51;;;;;;;7.73;5.17;;;;;;;;;;729804;190;924285;-63
2020/12/06 11:23:17;;;;;;;14.33;7.43;;;;;;;;;;730455;190;918532;-63
2020/12/06 11:25:44;;;;;;;8.87;6.40;;;;;;;;;;733057;189;919402;-64
2020/12/06 11:28:09;;;;;;;10.03;6.93;;;;;;;;;;732268;190;918997;-64
2020/12/06 11:30:35;;;;;;;7.73;5.63;;;;;;;;;;724606;189;1411798;-63
2020/12/06 11:33:00;;;;;;;13.33;6.13;;;;;;;;;;735001;190;912113;-63
2020/12/06 11:35:26;;;;;;;8.70;5.60;;;;;;;;;;727282;189;918593;-63
2020/12/06 11:37:52;;;;;;;9.00;6.60;;;;;;;;;;729583;190;920660;-63
2020/12/06 11:40:19;;;;;;;7.70;5.30;;;;;;;;;;727374;189;919026;-63
2020/12/06 11:42:44;;;;;;;6.83;6.00;;;;;;;;;;727562;189;1123846;-64
2020/12/06 11:45:10;;;;;;;7.97;5.40;;;;;;;;;;727908;190;918953;-66
2020/12/06 11:47:36;;;;;;;9.30;5.63;;;;;;;;;;730659;189;918586;-63
2020/12/06 11:50:02;;;;;;;6.10;4.70;;;;;;;;;;737555;190;919061;-63
2020/12/06 11:52:28;;;;;;;8.23;4.97;;;;;;;;;;728302;189;1057304;-63
2020/12/06 11:54:54;;;;;;;7.40;5.37;;;;;;;;;;729832;190;926833;-63
2020/12/06 11:57:20;;;;;;;6.90;5.50;;;;;;;;;;734577;188;919458;-63
2020/12/06 11:59:46;;;;;;;8.20;6.13;;;;;;;;;;734439;188;919304;-63
2020/12/06 12:02:11;;;;;;;11.90;7.53;;;;;;;;;;729789;189;917768;-63
2020/12/06 12:04:37;;;;;;;7.10;4.43;;;;;;;;;;736680;189;919134;-63
2020/12/06 12:07:03;;;;;;;9.10;5.33;;;;;;;;;;728993;190;919718;-63
2020/12/06 12:09:29;;;;;;;12.97;6.93;;;;;;;;;;728333;189;918280;-63
2020/12/06 12:11:55;;;;;;;9.70;7.00;;;;;;;;;;726580;190;919409;-62
2020/12/06 12:14:21;;;;;;;13.20;9.90;;;;;;;;;;738134;190;918640;-63
2020/12/06 12:16:47;;;;;;;21.20;12.40;;;;;;;;;;732833;189;909111;-63
2020/12/06 12:19:13;;;;;;;6.83;5.40;;;;;;;;;;731792;190;919713;-62
2020/12/06 12:21:39;;;;;;;10.33;6.90;;;;;;;;;;727404;189;919504;-63
2020/12/06 12:24:05;;;;;;;10.67;7.30;;;;;;;;;;731870;190;919483;-63
2020/12/06 12:26:31;;;;;;;8.10;6.47;;;;;;;;;;731337;189;920043;-63
2020/12/06 12:28:57;;;;;;;13.33;6.40;;;;;;;;;;732115;189;918897;-63
2020/12/06 12:31:23;;;;;;;9.77;6.70;;;;;;;;;;727963;189;1737037;-63
2020/12/06 12:33:49;;;;;;;7.33;5.50;;;;;;;;;;726226;190;918355;-63
2020/12/06 12:36:14;;;;;;;8.57;5.60;;;;;;;;;;730156;189;918740;-63
2020/12/06 12:38:40;;;;;;;9.90;7.43;;;;;;;;;;722844;190;1712876;-63
2020/12/06 12:41:06;;;;;;;8.57;5.97;;;;;;;;;;727894;189;919875;-64
2020/12/06 12:43:32;;;;;;;8.37;5.43;;;;;;;;;;727280;190;919355;-63
2020/12/06 12:45:58;;;;;;;9.20;5.87;;;;;;;;;;738579;190;614712;-64
2020/12/06 12:48:24;;;;;;;15.10;5.77;;;;;;;;;;731110;189;920371;-64
2020/12/06 12:50:49;;;;;;;9.10;6.10;;;;;;;;;;729876;190;919711;-63
2020/12/06 12:53:15;;;;;;;7.70;5.33;;;;;;;;;;731368;190;918814;-63
2020/12/06 12:55:41;;;;;;;8.13;5.90;;;;;;;;;;727369;190;920337;-63
2020/12/06 12:58:07;;;;;;;29.33;15.98;;;;;;;;;;723403;190;1993178;-64
2020/12/06 13:00:33;;;;;;;16.43;9.60;;;;;;;;;;734242;190;918189;-64
2020/12/06 13:02:59;;;;;;;12.70;8.40;;;;;;;;;;731694;190;918998;-64
2020/12/06 13:05:25;;;;;;;11.48;7.85;;;;;;;;;;725974;190;923362;-64
2020/12/06 13:07:50;;;;;;;11.40;7.77;;;;;;;;;;729888;190;918937;-65
2020/12/06 13:10:16;;;;;;;9.63;7.18;;;;;;;;;;726347;189;914452;-63
2020/12/06 13:12:42;;;;;;;11.60;8.20;;;;;;;;;;729611;189;919193;-64
2020/12/06 13:15:08;;;;;;;13.40;7.90;;;;;;;;;;728838;187;920597;-63
2020/12/06 13:17:34;;;;;;;10.80;8.13;;;;;;;;;;735085;189;919768;-63
2020/12/06 13:20:00;;;;;;;9.30;6.63;;;;;;;;;;731471;189;936036;-63
2020/12/06 13:22:26;;;;;;;9.27;6.50;;;;;;;;;;730825;190;918208;-63
2020/12/06 13:24:51;;;;;;;10.33;7.43;;;;;;;;;;734655;190;917737;-63
2020/12/06 13:27:17;;;;;;;11.87;7.47;;;;;;;;;;732609;189;930553;-64
2020/12/06 13:29:45;;;;;;;11.23;7.07;;;;;;;;;;728431;190;1017720;-64
2020/12/06 13:32:09;;;;;;;7.50;5.40;;;;;;;;;;738059;189;637543;-63
2020/12/06 13:34:35;;;;;;;10.40;6.43;;;;;;;;;;727239;189;915905;-63
2020/12/06 13:37:01;;;;;;;13.10;8.33;;;;;;;;;;729989;190;915407;-63
2020/12/06 13:39:30;;;;;;;17.63;11.23;;;;;;;;;;729390;190;918943;-64
2020/12/06 13:41:56;;;;;;;14.13;9.67;;;;;;;;;;736656;189;899011;-63
2020/12/06 13:44:22;;;;;;;12.10;7.83;;;;;;;;;;726682;189;919018;-63
2020/12/06 13:46:48;;;;;;;12.53;8.03;;;;;;;;;;728340;189;919055;-64
2020/12/06 13:49:14;;;;;;;12.27;8.80;;;;;;;;;;736496;190;919350;-63
2020/12/06 13:51:40;;;;;;;13.10;9.37;;;;;;;;;;727434;190;927542;-63
2020/12/06 13:54:06;;;;;;;14.15;8.77;;;;;;;;;;731830;190;919212;-63
2020/12/06 13:56:32;;;;;;;21.25;12.45;;;;;;;;;;730010;189;918370;-61
2020/12/06 13:58:58;;;;;;;14.60;9.80;;;;;;;;;;723065;190;919979;-63
2020/12/06 14:01:24;;;;;;;14.13;8.70;;;;;;;;;;728011;190;919077;-63
2020/12/06 14:03:50;;;;;;;16.80;8.47;;;;;;;;;;730731;190;919181;-63
2020/12/06 14:06:16;;;;;;;9.93;7.07;;;;;;;;;;733594;189;919158;-63
2020/12/06 14:08:42;;;;;;;12.30;7.57;;;;;;;;;;729983;189;921688;-63
2020/12/06 14:11:08;;;;;;;15.63;9.40;;;;;;;;;;730744;189;875368;-63